Sainte-Anne-De-Bellevue, Canada
Current Conditions -  °F | °C
As of 5:00 AM on Sunday 26 Oct 2014 (Local Time) from CYUL Reporting Station
Overcast Overcast  
Wind Chill: 42°   Ceiling: 10000
Heat Index: 46°   Visibility: 15mi
Dew Point: 45°   Wind: 9mph
Humidity: 93%   Direction: 240°WSW
Pressure: 29.41"   Gusts: NA
Location:  45.48°N, 73.9°W
Report Text: CYUL 260900Z 24008KT 15SM FEW012 FEW030 OVC100 08/07 A2941 RMK SF1SC1AC8 SF TR SC TR SLP961
Loading
Personal Weather Stations






























Interactive Weather Map
Tropical Storm Tracking
New forecast layout! Learn more

10-Day Weather Forecast

Advertisements
Track Severe Weather on mobile